Time;durP1;ratioP1;P1;durP2;ratioP2;P2;SDS_P1;SDS_P2;PMS_P1;PMS_P2;Temp;Humidity;BMP_temperature;BMP_pressure;BME280_temperature;BME280_humidity;BME280_pressure;Samples;Min_cycle;Max_cycle;Signal;HPM_P1;HPM_P2
2021/09/26 00:01:19;;;;;;;2.17;1.50;;;17.50;99.90;;;;;;5012169;28;20411;-73
2021/09/26 00:03:44;;;;;;;2.07;1.87;;;17.50;99.90;;;;;;5012802;28;20530;-73
2021/09/26 00:06:10;;;;;;;0.90;0.70;;;17.60;99.90;;;;;;5011634;28;20212;-73
2021/09/26 00:08:36;;;;;;;1.17;0.90;;;17.60;99.90;;;;;;5010856;28;20184;-74
2021/09/26 00:11:05;;;;;;;0.87;0.83;;;17.60;99.90;;;;;;5011030;28;20259;-73
2021/09/26 00:13:33;;;;;;;1.67;1.57;;;17.50;99.90;;;;;;5012939;28;20169;-73
2021/09/26 00:15:59;;;;;;;1.27;1.17;;;17.50;99.90;;;;;;5009614;28;20427;-73
2021/09/26 00:18:24;;;;;;;1.90;1.30;;;17.60;99.90;;;;;;5011187;28;20792;-73
2021/09/26 00:20:50;;;;;;;1.13;0.87;;;17.60;99.90;;;;;;5013086;28;20254;-75
2021/09/26 00:23:18;;;;;;;1.67;1.57;;;17.60;99.90;;;;;;5009931;28;20730;-73
2021/09/26 00:25:43;;;;;;;1.77;1.53;;;17.60;99.90;;;;;;5005602;28;20282;-73
2021/09/26 00:28:09;;;;;;;1.67;1.03;;;17.60;99.90;;;;;;5010283;28;20466;-73
2021/09/26 00:30:35;;;;;;;9.47;2.63;;;17.60;99.90;;;;;;5003253;28;20180;-75
2021/09/26 00:33:00;;;;;;;0.80;0.60;;;17.50;99.90;;;;;;5009554;28;20200;-74
2021/09/26 00:35:27;;;;;;;1.30;0.90;;;17.50;99.90;;;;;;5011984;28;20198;-75
2021/09/26 00:37:52;;;;;;;1.17;1.07;;;17.50;99.90;;;;;;5011856;28;20188;-74
2021/09/26 00:40:18;;;;;;;5.93;1.67;;;17.60;99.90;;;;;;4998634;28;21011;-73
2021/09/26 00:42:44;;;;;;;1.83;1.73;;;17.60;99.90;;;;;;5002578;28;20299;-73
2021/09/26 00:45:10;;;;;;;4.33;1.37;;;17.50;99.90;;;;;;4997599;28;20238;-73
2021/09/26 00:47:35;;;;;;;2.17;1.33;;;17.50;99.90;;;;;;5010098;28;20215;-74
2021/09/26 00:50:01;;;;;;;3.57;1.67;;;17.50;99.90;;;;;;5009008;28;20203;-74
2021/09/26 00:52:26;;;;;;;0.70;0.50;;;17.50;99.90;;;;;;5011921;28;20620;-73
2021/09/26 00:54:52;;;;;;;1.30;1.20;;;17.40;99.90;;;;;;5010977;28;20829;-73
2021/09/26 00:57:17;;;;;;;1.30;1.20;;;17.40;99.90;;;;;;5010922;28;20199;-73
2021/09/26 00:59:43;;;;;;;1.33;1.20;;;17.40;99.90;;;;;;5010535;28;20235;-73
2021/09/26 01:02:08;;;;;;;1.13;1.03;;;17.30;99.90;;;;;;5012533;28;20581;-75
2021/09/26 01:04:34;;;;;;;1.97;1.47;;;17.30;99.90;;;;;;5013184;28;20621;-74
2021/09/26 01:07:09;;;;;;;1.53;1.23;;;17.40;99.90;;;;;;5010271;28;20234;-73
2021/09/26 01:09:56;;;;;;;2.60;2.50;;;17.40;99.90;;;;;;5003196;28;20217;-74
2021/09/26 01:12:53;;;;;;;1.40;1.03;;;17.40;99.90;;;;;;5011149;28;20594;-73
2021/09/26 01:15:25;;;;;;;0.80;0.70;;;17.40;99.90;;;;;;4997135;28;20446;-74
2021/09/26 01:18:12;;;;;;;2.40;2.00;;;17.40;99.90;;;;;;5008951;28;20439;-73
2021/09/26 01:21:05;;;;;;;1.00;0.83;;;17.40;99.90;;;;;;5009580;28;21194;-73
2021/09/26 01:23:42;;;;;;;8.57;1.20;;;17.50;99.90;;;;;;5009896;28;20518;-73
2021/09/26 01:26:20;;;;;;;0.80;0.70;;;17.40;99.90;;;;;;5010184;28;20842;-73
2021/09/26 01:29:04;;;;;;;1.57;1.47;;;17.40;99.90;;;;;;5006386;28;20430;-73
2021/09/26 01:31:44;;;;;;;6.40;1.80;;;17.40;99.90;;;;;;5006327;28;20452;-73
2021/09/26 01:34:44;;;;;;;4.33;1.50;;;17.40;99.90;;;;;;5004092;28;20426;-73
2021/09/26 01:37:16;;;;;;;2.13;1.00;;;17.40;99.90;;;;;;5010022;28;20443;-73
2021/09/26 01:39:48;;;;;;;1.90;1.60;;;17.40;99.90;;;;;;5011613;28;20426;-73
2021/09/26 01:42:24;;;;;;;1.20;1.10;;;17.30;99.90;;;;;;5009336;28;20465;-74
2021/09/26 01:45:04;;;;;;;1.60;1.50;;;17.40;99.90;;;;;;5008446;28;20470;-74
2021/09/26 01:47:34;;;;;;;1.53;1.43;;;17.30;99.90;;;;;;5008455;28;20815;-74
2021/09/26 01:50:03;;;;;;;2.10;1.93;;;17.30;99.90;;;;;;5010329;28;20480;-73
2021/09/26 01:52:32;;;;;;;1.40;1.30;;;17.30;99.90;;;;;;5010289;28;20431;-74
2021/09/26 01:54:59;;;;;;;1.10;1.00;;;17.30;99.90;;;;;;5011639;28;20431;-73
2021/09/26 01:57:26;;;;;;;0.80;0.70;;;17.30;99.90;;;;;;5013419;28;20451;-74
2021/09/26 01:59:55;;;;;;;1.10;1.03;;;17.40;99.90;;;;;;5012813;28;20437;-73
2021/09/26 02:02:21;;;;;;;1.53;1.43;;;17.40;99.90;;;;;;5003053;28;20979;-75
2021/09/26 02:04:53;;;;;;;2.40;2.20;;;17.50;99.90;;;;;;5014138;28;20531;-74
2021/09/26 02:07:20;;;;;;;1.10;1.00;;;17.50;99.90;;;;;;5011814;28;20454;-74
2021/09/26 02:09:47;;;;;;;0.90;0.70;;;17.50;99.90;;;;;;5014130;28;20410;-74
2021/09/26 02:12:14;;;;;;;1.77;0.90;;;17.40;99.90;;;;;;5013927;28;20411;-74
2021/09/26 02:14:43;;;;;;;1.90;1.23;;;17.50;99.90;;;;;;5014144;28;20486;-74
2021/09/26 02:17:10;;;;;;;0.90;0.60;;;17.60;99.90;;;;;;5003049;28;20435;-74
2021/09/26 02:19:37;;;;;;;1.00;0.70;;;17.50;99.90;;;;;;5011809;28;20549;-74
2021/09/26 02:22:08;;;;;;;3.00;2.03;;;17.50;99.90;;;;;;5013070;28;20455;-75
2021/09/26 02:24:35;;;;;;;1.10;1.00;;;17.50;99.90;;;;;;5013795;28;20414;-74
2021/09/26 02:27:01;;;;;;;1.30;0.70;;;17.50;99.90;;;;;;5004982;28;20829;-73
2021/09/26 02:29:26;;;;;;;1.73;1.63;;;17.50;99.90;;;;;;5007878;28;20427;-74
2021/09/26 02:31:53;;;;;;;0.80;0.70;;;17.50;99.90;;;;;;5012996;28;20246;-74
2021/09/26 02:34:19;;;;;;;1.00;0.90;;;17.50;99.90;;;;;;5013514;28;20431;-74
2021/09/26 02:36:45;;;;;;;2.40;2.20;;;17.50;99.90;;;;;;5009715;28;20438;-74
2021/09/26 02:39:15;;;;;;;0.70;0.60;;;17.50;99.90;;;;;;5006100;28;20302;-74
2021/09/26 02:41:46;;;;;;;1.30;1.17;;;17.60;99.90;;;;;;5011115;28;20249;-74
2021/09/26 02:44:54;;;;;;;4.47;1.93;;;17.60;99.90;;;;;;5007142;28;20466;-74
2021/09/26 02:47:25;;;;;;;0.70;0.50;;;17.50;99.90;;;;;;4999325;28;20467;-74
2021/09/26 02:49:52;;;;;;;4.93;1.67;;;17.60;99.90;;;;;;5013042;28;20784;-74
2021/09/26 02:52:19;;;;;;;1.33;1.13;;;17.50;99.90;;;;;;5013127;28;20451;-74
2021/09/26 02:54:45;;;;;;;1.47;1.37;;;17.60;99.90;;;;;;5011373;28;20510;-74
2021/09/26 02:57:11;;;;;;;2.03;1.83;;;17.60;99.90;;;;;;5004851;28;20532;-74
2021/09/26 02:59:37;;;;;;;3.90;2.10;;;17.60;99.90;;;;;;4994417;28;20412;-74
2021/09/26 03:02:03;;;;;;;1.00;0.80;;;17.60;99.90;;;;;;5010576;28;20575;-74
2021/09/26 03:04:29;;;;;;;1.73;1.13;;;17.60;99.90;;;;;;5010966;28;20431;-74
2021/09/26 03:06:55;;;;;;;2.07;1.47;;;17.60;99.90;;;;;;5011899;28;20466;-74
2021/09/26 03:09:21;;;;;;;2.43;2.23;;;17.60;99.90;;;;;;5012164;28;20638;-74
2021/09/26 03:11:47;;;;;;;2.13;2.03;;;17.60;99.90;;;;;;5011457;28;20454;-74
2021/09/26 03:14:12;;;;;;;2.63;1.77;;;17.70;99.90;;;;;;5009468;28;20188;-73
2021/09/26 03:16:39;;;;;;;2.00;1.13;;;17.60;99.90;;;;;;5012761;28;20180;-74
2021/09/26 03:19:05;;;;;;;1.30;1.20;;;17.60;99.90;;;;;;5012383;28;21897;-74
2021/09/26 03:21:30;;;;;;;1.27;0.90;;;17.60;99.90;;;;;;5010827;28;20446;-74
2021/09/26 03:23:57;;;;;;;1.73;1.63;;;17.50;99.90;;;;;;5012970;28;20399;-74
2021/09/26 03:26:23;;;;;;;5.00;1.33;;;17.50;99.90;;;;;;5011678;28;20211;-74
2021/09/26 03:28:48;;;;;;;1.10;1.00;;;17.40;99.90;;;;;;5009028;28;20427;-74
2021/09/26 03:31:14;;;;;;;1.53;1.43;;;17.40;99.90;;;;;;5007529;28;20645;-74
2021/09/26 03:33:40;;;;;;;1.57;1.30;;;17.40;99.90;;;;;;5012480;28;20219;-74
2021/09/26 03:36:05;;;;;;;0.93;0.83;;;17.40;99.90;;;;;;5009986;28;20172;-74
2021/09/26 03:38:31;;;;;;;2.30;1.70;;;17.40;99.90;;;;;;5013061;28;20597;-74
2021/09/26 03:40:57;;;;;;;1.20;1.10;;;17.40;99.90;;;;;;5009982;28;20604;-74
2021/09/26 03:43:23;;;;;;;1.23;1.00;;;17.30;99.90;;;;;;5008350;28;20859;-74
2021/09/26 03:45:51;;;;;;;1.30;1.20;;;17.30;99.90;;;;;;4996623;28;20180;-74
2021/09/26 03:48:19;;;;;;;5.67;1.37;;;17.30;99.90;;;;;;5011280;28;20731;-74
2021/09/26 03:50:46;;;;;;;0.87;0.80;;;17.30;99.90;;;;;;5012176;28;20509;-74
2021/09/26 03:53:11;;;;;;;2.23;2.00;;;17.30;99.90;;;;;;5012094;28;21008;-73
2021/09/26 03:55:37;;;;;;;1.33;1.00;;;17.30;99.90;;;;;;5008527;28;20510;-74
2021/09/26 03:58:03;;;;;;;2.40;1.10;;;17.30;99.90;;;;;;5010292;28;20530;-75
2021/09/26 04:00:28;;;;;;;1.93;1.83;;;17.30;99.90;;;;;;5005921;28;20573;-74
2021/09/26 04:02:54;;;;;;;1.67;1.57;;;17.40;99.90;;;;;;5012046;28;20325;-74
2021/09/26 04:05:19;;;;;;;1.20;0.87;;;17.40;99.90;;;;;;5008512;28;20211;-74
2021/09/26 04:07:45;;;;;;;5.03;1.47;;;17.40;99.90;;;;;;5010051;28;20196;-74
2021/09/26 04:10:11;;;;;;;2.70;2.50;;;17.40;99.90;;;;;;5010938;28;20660;-74
2021/09/26 04:12:37;;;;;;;1.90;1.80;;;17.40;99.90;;;;;;5012124;28;20203;-74
2021/09/26 04:15:04;;;;;;;2.70;1.43;;;17.40;99.90;;;;;;5009699;28;20800;-74
2021/09/26 04:17:30;;;;;;;4.20;1.80;;;17.40;99.90;;;;;;5011430;28;20435;-74
2021/09/26 04:19:55;;;;;;;2.00;1.43;;;17.30;99.90;;;;;;5011187;28;20789;-74
2021/09/26 04:22:21;;;;;;;2.70;2.27;;;17.40;99.90;;;;;;5011161;28;20689;-73
2021/09/26 04:24:47;;;;;;;1.43;1.00;;;17.30;99.90;;;;;;5008621;28;20518;-74
2021/09/26 04:27:12;;;;;;;2.50;1.50;;;17.30;99.90;;;;;;5007720;28;20208;-74
2021/09/26 04:29:38;;;;;;;1.00;0.90;;;17.30;99.90;;;;;;5010729;28;20211;-74
2021/09/26 04:32:04;;;;;;;1.70;1.60;;;17.40;99.90;;;;;;5011900;28;20556;-74
2021/09/26 04:34:30;;;;;;;1.77;1.67;;;17.40;99.90;;;;;;5009182;28;20168;-73
2021/09/26 04:36:55;;;;;;;1.47;1.10;;;17.30;99.90;;;;;;4999881;28;20172;-75
2021/09/26 04:39:21;;;;;;;3.20;3.00;;;17.30;99.90;;;;;;5000311;28;20192;-74
2021/09/26 04:41:47;;;;;;;3.07;1.00;;;17.40;99.90;;;;;;5009650;28;20215;-74
2021/09/26 04:44:13;;;;;;;1.50;1.23;;;17.40;99.90;;;;;;5011917;28;20184;-74
2021/09/26 04:46:38;;;;;;;1.13;1.03;;;17.30;99.90;;;;;;5011653;28;20286;-74
2021/09/26 04:49:04;;;;;;;3.57;1.50;;;17.40;99.90;;;;;;5023335;28;20176;-74
2021/09/26 04:51:29;;;;;;;2.13;2.00;;;17.40;99.90;;;;;;5003819;28;20256;-74
2021/09/26 04:53:55;;;;;;;1.20;1.10;;;17.40;99.90;;;;;;5000010;28;20169;-74
2021/09/26 04:56:20;;;;;;;2.80;2.60;;;17.40;99.90;;;;;;5000379;28;20177;-74
2021/09/26 04:58:46;;;;;;;3.27;1.90;;;17.40;99.90;;;;;;4992431;28;20204;-74
2021/09/26 05:01:12;;;;;;;1.67;1.57;;;17.40;99.90;;;;;;4995809;28;20181;-74
2021/09/26 05:03:37;;;;;;;1.73;1.43;;;17.30;99.90;;;;;;5011218;28;20176;-74
2021/09/26 05:06:03;;;;;;;3.30;2.30;;;17.30;99.90;;;;;;5011723;28;20545;-75
2021/09/26 05:08:29;;;;;;;8.13;3.83;;;17.40;99.90;;;;;;5011244;28;20303;-74
2021/09/26 05:10:54;;;;;;;2.23;1.10;;;17.40;99.90;;;;;;5010067;28;20658;-74
2021/09/26 05:13:20;;;;;;;4.00;2.70;;;17.40;99.90;;;;;;5010735;28;20668;-74
2021/09/26 05:15:45;;;;;;;5.97;3.13;;;17.40;99.90;;;;;;5009725;28;20191;-74
2021/09/26 05:18:12;;;;;;;1.40;1.30;;;17.40;99.90;;;;;;5011745;28;20269;-74
2021/09/26 05:20:38;;;;;;;1.27;1.17;;;17.40;99.90;;;;;;5004886;28;20219;-74
2021/09/26 05:23:03;;;;;;;3.60;2.00;;;17.40;99.90;;;;;;5011435;28;20427;-74
2021/09/26 05:25:29;;;;;;;2.03;1.93;;;17.40;99.90;;;;;;5011489;28;20645;-74
2021/09/26 05:27:55;;;;;;;2.70;2.50;;;17.50;99.90;;;;;;5011551;28;20192;-74
2021/09/26 05:30:21;;;;;;;2.60;1.47;;;17.40;99.90;;;;;;5004867;28;20485;-74
2021/09/26 05:32:46;;;;;;;1.20;0.90;;;17.40;99.90;;;;;;5014225;28;20317;-74
2021/09/26 05:35:12;;;;;;;1.80;1.70;;;17.40;99.90;;;;;;5014423;28;20505;-75
2021/09/26 05:37:38;;;;;;;2.57;2.33;;;17.50;99.90;;;;;;5014757;28;20187;-74
2021/09/26 05:40:05;;;;;;;4.10;3.80;;;17.50;99.90;;;;;;5008294;28;20768;-74
2021/09/26 05:42:31;;;;;;;1.27;1.17;;;17.50;99.90;;;;;;5008405;28;20196;-74
2021/09/26 05:44:57;;;;;;;2.37;2.27;;;17.50;99.90;;;;;;5014200;28;20465;-74
2021/09/26 05:47:22;;;;;;;3.30;3.00;;;17.50;99.90;;;;;;5013683;28;20223;-74
2021/09/26 05:49:48;;;;;;;2.07;1.97;;;17.50;99.90;;;;;;5011161;28;20646;-74
2021/09/26 05:52:13;;;;;;;2.20;2.10;;;17.50;99.90;;;;;;5014698;28;20188;-74
2021/09/26 05:54:40;;;;;;;1.57;1.20;;;17.50;99.90;;;;;;5011754;28;20180;-74
2021/09/26 05:57:06;;;;;;;2.60;1.50;;;17.50;99.90;;;;;;5010836;28;20271;-74
2021/09/26 05:59:37;;;;;;;6.93;2.40;;;17.60;99.90;;;;;;5012485;28;20427;-74
2021/09/26 06:02:04;;;;;;;4.13;1.43;;;17.60;99.90;;;;;;5013834;28;20459;-74
2021/09/26 06:04:29;;;;;;;2.70;2.50;;;17.60;99.90;;;;;;5010684;28;20434;-74
2021/09/26 06:06:56;;;;;;;4.13;1.57;;;17.50;99.90;;;;;;5010303;28;20975;-74
2021/09/26 06:09:21;;;;;;;1.43;1.23;;;17.60;99.90;;;;;;5012183;28;20212;-74
2021/09/26 06:11:47;;;;;;;2.00;1.10;;;17.50;99.90;;;;;;5011454;28;20528;-74
2021/09/26 06:14:12;;;;;;;1.70;1.60;;;17.50;99.90;;;;;;5012007;28;20188;-75
2021/09/26 06:16:38;;;;;;;1.33;1.23;;;17.50;99.90;;;;;;5013727;28;20206;-74
2021/09/26 06:19:04;;;;;;;1.30;1.20;;;17.50;99.90;;;;;;5011778;28;20168;-74
2021/09/26 06:21:29;;;;;;;1.50;1.10;;;17.50;99.90;;;;;;5013831;28;20600;-74
2021/09/26 06:23:55;;;;;;;0.80;0.77;;;17.50;99.90;;;;;;5014344;28;20180;-74
2021/09/26 06:26:22;;;;;;;3.27;1.77;;;17.50;99.90;;;;;;5009782;28;20716;-74
2021/09/26 06:28:50;;;;;;;2.20;1.60;;;17.50;99.90;;;;;;5012255;28;20184;-75
2021/09/26 06:31:16;;;;;;;1.67;1.07;;;17.50;99.90;;;;;;5011647;28;20427;-74
2021/09/26 06:33:41;;;;;;;4.50;1.67;;;17.60;99.90;;;;;;5013741;28;20438;-74
2021/09/26 06:36:07;;;;;;;3.47;3.17;;;17.60;99.90;;;;;;5012081;28;20207;-74
2021/09/26 06:38:33;;;;;;;2.00;1.90;;;17.70;99.90;;;;;;5008786;28;20180;-75
2021/09/26 06:40:59;;;;;;;1.03;0.93;;;17.80;99.90;;;;;;5010693;28;20933;-74
2021/09/26 06:43:25;;;;;;;2.33;2.13;;;17.90;99.90;;;;;;5006130;28;20463;-74
2021/09/26 06:45:50;;;;;;;1.60;1.50;;;17.90;99.90;;;;;;5009605;28;20192;-75
2021/09/26 06:48:16;;;;;;;2.30;1.20;;;18.00;99.90;;;;;;5010637;28;20207;-75
2021/09/26 06:50:41;;;;;;;2.40;1.00;;;18.10;99.90;;;;;;5008252;28;20848;-74
2021/09/26 06:53:07;;;;;;;2.07;1.87;;;18.10;99.90;;;;;;5011827;28;20323;-75
2021/09/26 06:55:33;;;;;;;1.60;1.23;;;18.10;99.90;;;;;;5011577;28;20657;-74
2021/09/26 06:57:58;;;;;;;8.83;2.37;;;18.30;99.90;;;;;;5008481;28;20228;-74
2021/09/26 07:00:24;;;;;;;3.17;2.87;;;18.30;99.90;;;;;;5000283;28;20198;-74
2021/09/26 07:02:51;;;;;;;2.70;2.50;;;18.40;99.90;;;;;;5011205;28;20207;-75
2021/09/26 07:05:17;;;;;;;3.17;2.83;;;18.40;99.90;;;;;;5013355;28;20172;-75
2021/09/26 07:07:44;;;;;;;2.47;1.67;;;18.40;99.90;;;;;;5012699;28;20518;-75
2021/09/26 07:10:10;;;;;;;1.40;1.30;;;18.50;99.90;;;;;;5013025;28;20172;-75
2021/09/26 07:12:36;;;;;;;2.10;1.67;;;18.70;99.90;;;;;;5004912;28;20459;-75
2021/09/26 07:15:02;;;;;;;1.73;1.63;;;18.70;99.90;;;;;;5002602;28;20427;-74
2021/09/26 07:17:29;;;;;;;3.80;2.20;;;18.80;99.90;;;;;;5002302;28;20180;-74
2021/09/26 07:19:55;;;;;;;1.53;1.07;;;18.90;99.90;;;;;;5010974;28;20443;-75
2021/09/26 07:22:23;;;;;;;6.20;2.60;;;18.90;99.90;;;;;;5011700;28;20537;-75
2021/09/26 07:24:52;;;;;;;3.47;2.50;;;19.00;99.90;;;;;;5009881;28;20270;-75
2021/09/26 07:27:19;;;;;;;1.43;1.30;;;19.10;99.90;;;;;;5011118;28;20466;-75
2021/09/26 07:29:44;;;;;;;1.20;1.10;;;19.20;99.90;;;;;;5006519;28;20431;-75
2021/09/26 07:32:11;;;;;;;1.67;1.57;;;19.30;99.90;;;;;;5013448;28;20438;-75
2021/09/26 07:34:36;;;;;;;1.30;1.13;;;19.50;99.90;;;;;;5010016;28;20427;-75
2021/09/26 07:37:02;;;;;;;3.57;1.67;;;19.50;99.90;;;;;;5011517;28;20443;-75
2021/09/26 07:39:27;;;;;;;1.60;1.50;;;19.60;99.90;;;;;;5009903;28;20188;-74
2021/09/26 07:41:53;;;;;;;2.33;1.50;;;19.80;99.90;;;;;;5007699;28;20207;-74
2021/09/26 07:44:18;;;;;;;1.63;1.50;;;19.90;99.90;;;;;;5012686;28;20184;-75
2021/09/26 07:46:44;;;;;;;1.20;1.10;;;20.10;99.90;;;;;;5010530;28;20211;-74
2021/09/26 07:49:10;;;;;;;1.10;1.00;;;20.20;99.90;;;;;;5007386;28;20687;-74
2021/09/26 07:51:35;;;;;;;1.43;1.33;;;20.30;99.90;;;;;;5005585;28;20250;-75
2021/09/26 07:54:01;;;;;;;2.70;0.80;;;20.40;99.90;;;;;;5007202;28;20270;-75
2021/09/26 07:56:27;;;;;;;1.53;1.30;;;20.50;99.90;;;;;;5006791;28;20224;-75
2021/09/26 07:58:52;;;;;;;3.50;1.60;;;20.50;99.90;;;;;;5008404;28;20216;-74
2021/09/26 08:01:18;;;;;;;2.40;2.17;;;20.60;99.90;;;;;;5005835;28;20184;-75
2021/09/26 08:03:44;;;;;;;1.17;0.90;;;20.70;99.90;;;;;;5006648;28;20184;-75
2021/09/26 08:06:09;;;;;;;1.00;0.90;;;20.90;99.90;;;;;;5008748;28;20489;-75
2021/09/26 08:08:36;;;;;;;1.97;1.23;;;21.00;99.90;;;;;;5009191;28;20208;-75
2021/09/26 08:11:02;;;;;;;3.27;1.30;;;21.30;99.90;;;;;;5009165;28;20258;-74
2021/09/26 08:13:28;;;;;;;2.10;1.97;;;21.70;99.90;;;;;;5007799;28;20522;-75
2021/09/26 08:15:54;;;;;;;2.97;0.80;;;22.40;99.90;;;;;;5010474;28;20906;-75
2021/09/26 08:18:19;;;;;;;1.77;1.60;;;22.90;99.90;;;;;;5010729;28;20466;-75
2021/09/26 08:20:45;;;;;;;1.17;1.07;;;23.50;99.90;;;;;;4999143;28;20177;-75
2021/09/26 08:23:10;;;;;;;1.00;0.90;;;24.00;99.90;;;;;;5012025;28;20243;-75
2021/09/26 08:25:36;;;;;;;1.47;1.00;;;24.20;99.90;;;;;;5008521;28;20188;-75
2021/09/26 08:28:02;;;;;;;2.30;1.50;;;24.60;99.90;;;;;;5009581;28;20203;-76
2021/09/26 08:30:28;;;;;;;1.03;0.93;;;25.10;99.90;;;;;;5004135;28;20212;-76
2021/09/26 08:32:54;;;;;;;1.00;0.90;;;25.50;99.90;;;;;;5010237;28;20489;-76
2021/09/26 08:35:19;;;;;;;0.90;0.80;;;26.00;99.90;;;;;;4994351;28;20227;-76
2021/09/26 08:37:45;;;;;;;1.20;1.10;;;26.60;99.90;;;;;;4994205;28;20187;-76
2021/09/26 08:40:11;;;;;;;1.20;1.10;;;27.30;99.90;;;;;;5000299;28;20258;-76
2021/09/26 08:42:38;;;;;;;1.90;1.17;;;27.50;99.90;;;;;;5009426;28;20208;-75
2021/09/26 08:45:06;;;;;;;2.20;1.60;;;27.90;99.90;;;;;;5008853;28;20485;-75
2021/09/26 08:47:39;;;;;;;2.20;1.50;;;27.40;99.90;;;;;;5011405;28;20466;-76
2021/09/26 08:50:06;;;;;;;1.10;1.00;;;28.10;99.90;;;;;;5008616;28;20438;-76
2021/09/26 08:52:32;;;;;;;1.47;1.37;;;28.50;99.90;;;;;;5007712;28;20459;-77
2021/09/26 08:54:57;;;;;;;1.07;0.87;;;28.90;99.90;;;;;;5005770;28;20446;-75
2021/09/26 08:57:23;;;;;;;2.80;1.23;;;29.30;99.90;;;;;;5011541;28;20184;-76
2021/09/26 08:59:48;;;;;;;1.10;0.90;;;29.30;99.90;;;;;;5011847;28;20188;-77
2021/09/26 09:02:14;;;;;;;2.83;2.53;;;29.80;99.90;;;;;;4995395;28;20720;-76
2021/09/26 09:04:42;;;;;;;3.83;1.47;;;29.80;99.90;;;;;;5009391;28;20231;-77
2021/09/26 09:07:10;;;;;;;1.20;1.10;;;29.70;99.90;;;;;;5012231;28;20231;-76
2021/09/26 09:09:53;;;;;;;1.40;1.30;;;29.80;99.90;;;;;;5016861;28;20423;-77
2021/09/26 09:12:28;;;;;;;2.10;1.30;;;30.20;99.90;;;;;;5015684;28;20454;-77
2021/09/26 09:14:57;;;;;;;1.17;1.07;;;30.30;99.90;;;;;;5014723;28;20461;-75
2021/09/26 09:17:34;;;;;;;1.00;0.90;;;30.20;99.90;;;;;;5016705;28;20438;-78
2021/09/26 09:20:27;;;;;;;2.23;2.13;;;30.10;99.90;;;;;;5017043;28;20438;-77
2021/09/26 09:22:58;;;;;;;0.90;0.70;;;30.20;99.90;;;;;;5016712;28;20465;-77
2021/09/26 09:25:41;;;;;;;1.00;0.90;;;30.40;99.90;;;;;;5010367;28;20466;-77
2021/09/26 09:28:10;;;;;;;1.20;1.00;;;30.50;99.90;;;;;;5014017;28;20473;-77
2021/09/26 09:30:58;;;;;;;1.10;0.77;;;30.50;99.90;;;;;;5014550;28;20509;-77
2021/09/26 09:33:38;;;;;;;1.20;1.10;;;30.80;99.90;;;;;;5016487;28;20492;-76
2021/09/26 09:36:22;;;;;;;1.10;1.00;;;30.80;99.90;;;;;;5011650;28;20759;-78
2021/09/26 09:38:51;;;;;;;1.10;1.00;;;30.60;99.90;;;;;;4999906;28;20843;-76
2021/09/26 09:41:32;;;;;;;1.57;1.13;;;30.30;99.90;;;;;;5000899;28;20482;-78
2021/09/26 09:43:58;;;;;;;1.47;0.80;;;30.50;99.90;;;;;;5005704;28;20435;-78
2021/09/26 09:46:37;;;;;;;0.90;0.80;;;30.60;99.90;;;;;;5010392;28;20427;-78
2021/09/26 09:49:08;;;;;;;1.10;0.97;;;30.80;99.90;;;;;;5014682;28;20633;-77
2021/09/26 09:51:36;;;;;;;1.97;1.33;;;30.80;99.90;;;;;;5012794;28;20501;-76
2021/09/26 09:54:04;;;;;;;1.13;1.03;;;31.00;99.90;;;;;;5013546;28;20434;-77
2021/09/26 09:56:40;;;;;;;1.83;1.00;;;31.00;99.90;;;;;;5011325;28;20422;-77
2021/09/26 09:59:05;;;;;;;1.20;1.10;;;31.10;99.50;;;;;;5005409;28;20552;-76
2021/09/26 10:01:37;;;;;;;1.30;1.13;;;31.20;97.50;;;;;;5007740;28;20548;-76
2021/09/26 10:04:07;;;;;;;1.60;1.50;;;31.30;99.90;;;;;;5012803;28;20173;-78
2021/09/26 10:06:38;;;;;;;1.40;1.00;;;31.50;99.20;;;;;;5009986;28;20530;-77
2021/09/26 10:09:24;;;;;;;1.53;1.43;;;31.80;91.50;;;;;;5007275;28;20435;-76
2021/09/26 10:12:02;;;;;;;1.10;1.00;;;31.70;92.10;;;;;;5013803;28;20430;-77
2021/09/26 10:14:31;;;;;;;1.70;1.00;;;31.30;91.60;;;;;;5003870;28;20428;-77
2021/09/26 10:17:01;;;;;;;2.70;1.40;;;31.00;90.60;;;;;;4993614;28;20872;-77
2021/09/26 10:19:27;;;;;;;0.90;0.70;;;31.10;90.40;;;;;;5002370;28;20427;-77
2021/09/26 10:21:56;;;;;;;1.00;0.90;;;31.10;91.50;;;;;;5012619;28;20802;-77
2021/09/26 10:24:24;;;;;;;1.30;1.20;;;31.40;91.00;;;;;;5022322;28;20426;-76
2021/09/26 10:26:51;;;;;;;2.93;1.00;;;31.30;87.80;;;;;;5005857;28;20487;-77
2021/09/26 10:29:20;;;;;;;0.80;0.63;;;31.40;88.10;;;;;;5011023;28;20453;-77
2021/09/26 10:31:50;;;;;;;1.10;1.00;;;31.50;87.50;;;;;;5012014;28;20447;-77
2021/09/26 10:34:20;;;;;;;4.90;3.27;;;31.40;83.20;;;;;;5011668;28;20427;-77
2021/09/26 10:36:47;;;;;;;1.13;1.03;;;31.00;86.70;;;;;;4999547;28;20430;-77
2021/09/26 10:39:15;;;;;;;1.10;0.77;;;30.30;87.40;;;;;;4994330;28;20452;-76
2021/09/26 10:42:02;;;;;;;0.90;0.70;;;29.80;91.50;;;;;;5010815;28;20442;-76
2021/09/26 10:44:28;;;;;;;1.00;0.70;;;29.40;92.60;;;;;;4993791;28;20439;-76
2021/09/26 10:47:16;;;;;;;0.90;0.77;;;28.90;94.30;;;;;;5001031;28;20490;-77
2021/09/26 10:49:52;;;;;;;1.20;0.97;;;28.30;99.90;;;;;;5007863;28;20594;-75
2021/09/26 10:52:25;;;;;;;0.80;0.60;;;27.80;99.90;;;;;;5012607;28;20445;-77
2021/09/26 10:54:52;;;;;;;1.73;0.80;;;27.40;99.90;;;;;;5008691;28;20429;-77
2021/09/26 10:59:00;;;;;;;3.97;1.60;;;27.20;99.90;;;;;;5049899;28;20601;-76
2021/09/26 11:01:30;;;;;;;0.90;0.73;;;26.60;99.90;;;;;;5049333;28;20409;-76
2021/09/26 11:03:56;;;;;;;0.90;0.60;;;26.40;99.90;;;;;;5045267;28;20164;-76
2021/09/26 11:06:30;;;;;;;1.03;0.70;;;26.10;99.90;;;;;;5029041;28;20413;-76
2021/09/26 11:09:00;;;;;;;1.17;0.90;;;25.80;99.90;;;;;;5031043;28;20167;-76
2021/09/26 11:11:46;;;;;;;1.00;0.80;;;25.70;99.90;;;;;;5036898;28;20433;-76
2021/09/26 11:14:13;;;;;;;1.13;0.70;;;25.50;99.90;;;;;;5048571;28;20508;-75
2021/09/26 11:16:55;;;;;;;1.37;0.90;;;25.30;99.90;;;;;;5048539;28;20402;-76
2021/09/26 11:19:22;;;;;;;2.93;1.23;;;25.00;99.90;;;;;;5049024;28;20817;-76
2021/09/26 11:21:53;;;;;;;1.77;1.00;;;24.80;99.90;;;;;;5047077;28;21017;-76
2021/09/26 11:24:22;;;;;;;1.20;1.10;;;24.70;99.90;;;;;;5049609;28;20746;-75
2021/09/26 11:26:59;;;;;;;1.20;1.00;;;24.40;99.90;;;;;;5037939;28;20418;-75
2021/09/26 11:29:25;;;;;;;1.53;1.43;;;24.20;99.90;;;;;;5029000;28;20481;-77
2021/09/26 11:31:51;;;;;;;1.00;0.70;;;24.10;99.90;;;;;;5028819;28;20455;-75
2021/09/26 11:34:38;;;;;;;0.80;0.70;;;24.00;99.90;;;;;;5029197;28;20456;-74
2021/09/26 11:37:05;;;;;;;1.00;0.73;;;24.00;99.90;;;;;;5043786;28;20935;-76
2021/09/26 11:39:32;;;;;;;1.00;0.90;;;24.00;99.90;;;;;;5049050;28;20410;-75
2021/09/26 11:41:58;;;;;;;0.80;0.60;;;23.90;99.90;;;;;;5048474;28;20483;-75
2021/09/26 11:44:24;;;;;;;0.90;0.60;;;23.90;99.90;;;;;;5040299;28;20414;-75
2021/09/26 11:46:53;;;;;;;1.43;0.80;;;23.70;99.90;;;;;;5028371;28;20421;-76
2021/09/26 11:49:19;;;;;;;0.97;0.87;;;23.60;99.90;;;;;;5040770;28;20421;-76
2021/09/26 11:51:45;;;;;;;1.10;0.80;;;23.60;99.90;;;;;;5048494;28;20445;-76
2021/09/26 11:54:11;;;;;;;0.90;0.80;;;23.50;99.90;;;;;;5045484;28;20842;-76
2021/09/26 11:56:39;;;;;;;1.10;0.60;;;23.50;99.90;;;;;;5055351;28;20158;-76
2021/09/26 11:59:15;;;;;;;0.80;0.60;;;23.50;99.90;;;;;;5050613;28;20752;-75
2021/09/26 12:01:45;;;;;;;0.90;0.70;;;23.40;99.90;;;;;;5048249;28;20420;-76
2021/09/26 12:04:22;;;;;;;1.30;0.80;;;23.50;99.90;;;;;;5042619;28;20411;-76
2021/09/26 12:07:06;;;;;;;1.90;1.70;;;23.60;99.90;;;;;;5045134;28;20458;-75
2021/09/26 12:09:46;;;;;;;1.53;0.90;;;23.60;99.90;;;;;;5031284;28;20407;-75
2021/09/26 12:12:19;;;;;;;0.90;0.80;;;23.50;99.90;;;;;;5015036;28;20426;-75
2021/09/26 12:14:50;;;;;;;2.63;1.40;;;23.60;99.90;;;;;;5022248;28;20414;-76
2021/09/26 12:17:25;;;;;;;0.90;0.70;;;23.70;99.90;;;;;;5034778;28;20450;-75
2021/09/26 12:19:56;;;;;;;0.90;0.80;;;23.70;99.90;;;;;;5034881;28;20412;-77
2021/09/26 12:22:26;;;;;;;1.00;0.80;;;23.70;99.90;;;;;;5034744;28;20422;-75
2021/09/26 12:25:26;;;;;;;1.27;1.17;;;23.60;99.90;;;;;;5033607;28;20418;-74
2021/09/26 12:28:09;;;;;;;1.13;1.03;;;23.40;99.90;;;;;;5012289;28;20433;-75
2021/09/26 12:30:40;;;;;;;1.27;0.77;;;23.20;99.90;;;;;;5032739;28;20788;-75
2021/09/26 12:33:25;;;;;;;0.90;0.60;;;23.10;99.90;;;;;;5014770;28;20789;-76
2021/09/26 12:36:04;;;;;;;0.90;0.70;;;23.00;99.90;;;;;;5014539;28;20410;-75
2021/09/26 12:38:41;;;;;;;1.00;0.90;;;22.90;99.90;;;;;;5013804;28;20477;-75
2021/09/26 12:41:12;;;;;;;1.10;1.00;;;22.90;99.90;;;;;;5033660;28;20823;-76
2021/09/26 12:44:03;;;;;;;0.90;0.70;;;22.90;99.90;;;;;;5034813;28;20935;-77
2021/09/26 12:46:59;;;;;;;7.13;1.70;;;22.90;99.90;;;;;;5034263;28;20970;-76
2021/09/26 12:49:26;;;;;;;1.20;0.70;;;22.90;99.90;;;;;;5024348;28;21060;-75
2021/09/26 12:52:01;;;;;;;0.90;0.70;;;22.80;99.90;;;;;;5034122;28;20437;-75
2021/09/26 12:54:33;;;;;;;1.17;1.00;;;22.90;99.90;;;;;;5033433;28;20414;-75
2021/09/26 12:57:04;;;;;;;0.80;0.70;;;22.80;99.90;;;;;;5033682;28;20461;-75
2021/09/26 12:59:34;;;;;;;0.83;0.63;;;22.90;99.90;;;;;;5017803;28;20408;-77